Station: Padthaway  

  Atmospheric Gas Attenuation - ITU Rec 676-11   ----------------- dB/100km -----------------
Date Time Temp RH % AH g/m3 Dew Point Wind Direction Speed kph Gust kph Barometer mB Rainfall Since 9am 24GHz 47GHz 76GHz 122GHz 134GHz 241GHz
08/05 12:10 15.4 76 9.99 11.2 17 24 1013.1 0 22.5 27.7 44.6 117.3 114.8 396.1
08/05 12:00 15.2 73 9.48 10.4 19 28 1013.1 0 21.4 26.9 42.6 112.0 108.2 373.0
08/05 11:50 15.6 73 9.71 10.8 19 28 1013.1 0 21.9 27.2 43.3 113.9 110.7 381.9
08/05 11:40 15.9 71 9.61 10.7 19 24 1013.1 0 21.6 26.9 42.8 112.4 109.0 375.8
08/05 11:30 15.2 77 9.99 11.2 19 28 1013.1 0 22.5 27.7 44.7 117.6 115.1 397.1
08/05 11:20 15 73 9.36 10.2 24 30 1013.1 0 21.2 26.8 42.2 111.0 106.9 368.4
08/05 11:10 15.6 79 10.51 12 13 17 1013.1 0 23.6 28.5 46.6 122.8 121.6 419.9
08/05 11:00 14.8 79 10.01 11.2 20 32 1013.1 0 22.6 27.9 45.0 118.4 116.0 400.1
08/05 10:50 14.4 82 10.14 11.4 20 24 1013.1 0 22.9 28.3 45.8 120.5 118.4 408.4
08/05 10:40 14.7 77 9.69 10.7 19 22 1013.1 0 21.9 27.4 43.8 115.0 111.8 385.3
08/05 10:30 15 76 9.75 10.8 19 26 1013.1 0 22.0 27.4 43.8 115.2 112.1 386.7
08/05 10:20 14.9 77 9.81 10.9 22 28 1013.1 0 22.1 27.5 44.1 116.0 113.1 390.0
08/05 10:10 14.4 80 9.89 11 17 20 1013.1 0 22.3 27.8 44.8 117.7 114.9 396.4
08/05 10:00 14.1 88 10.68 12.1 17 26 1013.1 0 24.0 29.3 48.3 127.1 126.4 436.5
08/05 09:50 13.6 86 10.12 11.3 20 28 1013.1 0 22.9 28.5 46.2 121.5 119.3 411.7
08/05 09:40 14 84 10.13 11.3 22 26 1013.1 0 22.9 28.4 46.0 121.0 118.9 410.1
08/05 09:30 14.2 83 10.14 11.4 13 24 1013.1 0 22.9 28.3 45.9 120.8 118.7 409.5
08/05 09:20 14.1 87 10.56 12 15 19 1013.1 0 23.8 29.1 47.8 125.7 124.7 430.6
08/05 09:10 13.7 89 10.54 11.9 15 22 1013.1 0 23.8 29.2 47.9 126.1 125.1 431.8
08/05 09:00 13.4 91 10.58 12 13 19 1013.1 0 23.9 29.3 48.3 127.1 126.2 435.5
08/05 08:50 13.1 92 10.5 11.8 15 17 1013.1 0.8 23.7 29.3 48.1 126.7 125.5 433.2
08/05 08:40 13 92 10.43 11.7 13 15 1013.1 0.8 23.6 29.2 47.9 126.0 124.7 430.3
08/05 08:30 13 92 10.43 11.7 13 20 1013.1 0.8 23.6 29.2 47.9 126.0 124.7 430.3
08/05 08:20 12.9 92 10.37 11.6 13 15 1013.1 0.8 23.4 29.1 47.7 125.5 124.0 427.8
08/05 08:10 12.6 92 10.18 11.3 13 17 1013.1 0.8 23.0 28.9 47.0 123.8 121.8 420.0
08/05 08:00 12.5 93 10.23 11.4 13 22 1013.1 0.8 23.2 29.0 47.3 124.5 122.6 423.1
08/05 07:50 12.3 94 10.21 11.4 11 13 1013.1 0.8 23.1 29.1 47.4 124.6 122.7 423.2
08/05 07:40 12.1 95 10.19 11.3 11 13 1013.1 0.8 23.1 29.1 47.4 124.7 122.7 423.3
08/05 07:30 11.9 95 10.06 11.1 11 17 1013.1 0.8 22.8 28.9 46.9 123.5 121.2 417.9
08/05 07:20 11.8 95 10 11 11 15 1013.1 0.8 22.7 28.9 46.7 123.0 120.5 415.4
08/05 07:10 11.9 95 10.06 11.1 11 13 1013.1 0.8 22.8 28.9 46.9 123.5 121.2 417.9
08/05 07:00 12.2 96 10.36 11.6 11 19 1013.1 0.8 23.5 29.4 48.1 126.5 125.0 431.2
08/05 06:50 12.2 96 10.36 11.6 7 9 1013.1 0.4 23.5 29.4 48.1 126.5 125.0 431.2
08/05 06:40 12.2 95 10.25 11.4 9 11 1013.1 0.4 23.2 29.2 47.6 125.2 123.4 425.7
08/05 06:30 12.1 95 10.19 11.3 13 20 1013.1 0.4 23.1 29.1 47.4 124.7 122.7 423.3
08/05 06:20 12.1 95 10.19 11.3 19 28 1013.1 0.4 23.1 29.1 47.4 124.7 122.7 423.3
08/05 06:10 12 95 10.13 11.2 13 22 1013.1 0.4 23.0 29.0 47.2 124.2 122.0 420.8
08/05 06:00 11.9 95 10.06 11.1 15 24 1013.1 0.4 22.8 28.9 46.9 123.5 121.2 417.9
08/05 05:50 12 95 10.13 11.2 15 20 1013.1 0.4 23.0 29.0 47.2 124.2 122.0 420.8
08/05 05:40 11.8 95 10 11 13 17 1013.1 0.4 22.7 28.9 46.7 123.0 120.5 415.4
08/05 05:30 11.8 95 10 11 13 22 1013.1 0.4 22.7 28.9 46.7 123.0 120.5 415.4
08/05 05:20 11.8 95 10 11 15 19 1013.1 0.4 22.7 28.9 46.7 123.0 120.5 415.4
08/05 05:10 12 96 10.23 11.4 19 20 1013.1 0.4 23.2 29.2 47.6 125.3 123.4 425.8
08/05 05:00 11.8 95 10 11 13 19 1013.1 0.4 22.7 28.9 46.7 123.0 120.5 415.4
08/05 04:50 12 96 10.23 11.4 11 13 1013.1 0.4 23.2 29.2 47.6 125.3 123.4 425.8
08/05 04:40 12 96 10.23 11.4 15 17 1013.1 0.4 23.2 29.2 47.6 125.3 123.4 425.8
08/05 04:30 12 95 10.13 11.2 15 22 1013.1 0 23.0 29.0 47.2 124.2 122.0 420.8
08/05 04:20 11.9 95 10.06 11.1 17 22 1013.1 0 22.8 28.9 46.9 123.5 121.2 417.9
08/05 04:10 11.9 96 10.17 11.3 13 17 1013.1 0 23.1 29.1 47.4 124.8 122.7 423.4
08/05 04:00 11.8 96 10.11 11.2 13 20 1013.1 0 22.9 29.1 47.2 124.2 122.0 420.9
08/05 03:50 11.7 96 10.04 11.1 13 15 1013.1 0 22.8 29.0 47.0 123.6 121.2 418.0
08/05 03:40 11.9 95 10.06 11.1 11 15 1013.1 0 22.8 28.9 46.9 123.5 121.2 417.9
08/05 03:30 11.9 95 10.06 11.1 11 19 1013.1 0 22.8 28.9 46.9 123.5 121.2 417.9
08/05 03:20 11.8 95 10 11 13 17 1013.1 0 22.7 28.9 46.7 123.0 120.5 415.4
08/05 03:10 11.8 95 10 11 11 13 1013.1 0 22.7 28.9 46.7 123.0 120.5 415.4
08/05 03:00 11.8 95 10 11 13 19 1013.1 0 22.7 28.9 46.7 123.0 120.5 415.4
08/05 02:50 11.8 94 9.89 10.9 11 15 1013.1 0 22.5 28.7 46.3 121.7 118.9 409.9
08/05 02:40 11.7 94 9.83 10.8 9 13 1013.1 0 22.3 28.6 46.1 121.2 118.2 407.5
08/05 02:30 11.8 93 9.79 10.7 11 15 1013.1 0 22.2 28.5 45.8 120.5 117.5 405.0
08/05 02:20 11.8 93 9.79 10.7 11 13 1013.1 0 22.2 28.5 45.8 120.5 117.5 405.0
08/05 02:10 11.9 92 9.74 10.6 11 15 1013.1 0 22.1 28.4 45.6 119.8 116.6 402.0
08/05 02:00 12.1 89 9.55 10.3 13 26 1013.1 0 21.7 28.0 44.6 117.3 113.6 391.6
08/05 01:50 12.3 87 9.45 10.2 11 17 1013.1 0 21.5 27.8 44.1 115.9 112.0 385.7
08/05 01:40 12.3 86 9.34 10 11 13 1013.1 0 21.3 27.6 43.6 114.7 110.4 380.4
08/05 01:30 12.3 86 9.34 10 13 19 1013.1 0 21.3 27.6 43.6 114.7 110.4 380.4
08/05 01:20 12.2 87 9.39 10.1 11 15 1013.1 0 21.4 27.7 43.9 115.4 111.3 383.3
08/05 01:10 12.4 85 9.29 10 19 26 1013.1 0 21.1 27.5 43.4 113.9 109.6 377.5
08/05 01:00 13.1 78 8.9 9.4 19 32 1013.1 0 20.3 26.6 41.4 108.6 103.3 355.6
08/05 00:50 13.1 77 8.79 9.2 13 17 1013.1 0 20.0 26.4 40.9 107.4 101.8 350.4
08/05 00:40 13.1 77 8.79 9.2 15 20 1013.1 0 20.0 26.4 40.9 107.4 101.8 350.4
08/05 00:30 13.1 77 8.79 9.2 19 30 1013.1 0 20.0 26.4 40.9 107.4 101.8 350.4
08/05 00:20 13.1 77 8.79 9.2 19 24 1013.1 0 20.0 26.4 40.9 107.4 101.8 350.4
08/05 00:10 13 77 8.73 9.1 17 20 1013.1 0 19.9 26.3 40.7 106.9 101.1 348.0
08/05 00:00 13 77 8.73 9.1 15 22 1013.1 0 19.9 26.3 40.7 106.9 101.1 348.0
07/05 23:50 12.9 77 8.68 9 15 19 1013.1 0 19.8 26.3 40.6 106.5 100.6 346.1
07/05 23:40 12.9 76 8.57 8.8 17 20 1013.1 0 19.6 26.1 40.1 105.3 99.1 341.0
07/05 23:30 12.8 77 8.63 8.9 13 19 1013.1 0 19.7 26.2 40.4 106.1 100.1 344.2
07/05 23:20 12.8 77 8.63 8.9 15 20 1013.1 0 19.7 26.2 40.4 106.1 100.1 344.2
07/05 23:10 12.7 77 8.57 8.8 13 17 1013.1 0 19.6 26.2 40.2 105.6 99.4 341.8
07/05 23:00 12.6 77 8.52 8.7 15 26 1013.1 0 19.5 26.1 40.1 105.2 98.9 339.9
07/05 22:50 12.9 77 8.68 9 19 24 1013.1 0 19.8 26.3 40.6 106.5 100.6 346.1
07/05 22:40 12.9 76 8.57 8.8 17 20 1013.1 0 19.6 26.1 40.1 105.3 99.1 341.0
07/05 22:30 13.1 74 8.44 8.6 17 24 1013.1 0 19.3 25.8 39.5 103.6 97.2 334.0
07/05 22:20 13 73 8.28 8.3 15 19 1013.1 0 18.9 25.6 38.9 102.1 95.2 327.1
07/05 22:10 13 72 8.17 8.1 17 24 1013.1 0 18.7 25.4 38.5 100.9 93.7 322.0
07/05 22:00 12.9 71 8 7.8 15 24 1013.1 0 18.3 25.2 37.8 99.2 91.6 314.6
07/05 21:50 12.9 70 7.89 7.6 15 17 1013.1 0 18.1 25.0 37.4 98.0 90.2 309.5
07/05 21:40 12.7 70 7.79 7.4 13 17 1013.1 0 17.9 24.9 37.1 97.2 89.1 305.8
07/05 21:30 12.6 71 7.86 7.5 15 22 1013.1 0 18.1 25.0 37.4 98.1 90.1 309.4
07/05 21:20 12.5 72 7.92 7.6 15 17 1013.1 0 18.2 25.2 37.7 98.9 91.0 312.5
07/05 21:10 12.3 74 8.04 7.8 15 19 1013.1 0 18.5 25.4 38.3 100.4 92.8 318.8
07/05 21:00 12 77 8.21 8.1 13 19 1013.1 0 18.8 25.8 39.1 102.6 95.5 328.0
07/05 20:50 11.7 78 8.16 8 11 15 1013.1 0 18.7 25.8 39.1 102.5 95.2 326.9
07/05 20:40 11.8 80 8.42 8.5 13 17 1013.1 0 19.3 26.2 40.1 105.2 98.5 338.7
07/05 20:30 11.7 82 8.58 8.7 13 20 1013.1 0 19.6 26.5 40.8 107.0 100.8 346.7
07/05 20:20 11.7 83 8.68 8.9 15 17 1013.1 0 19.9 26.6 41.2 108.2 102.2 351.5
07/05 20:10 11.6 85 8.84 9.2 15 19 1013.1 0 20.2 26.9 41.9 110.1 104.5 359.6
07/05 20:00 11.4 85 8.73 9 13 20 1013.1 0 20.0 26.8 41.6 109.1 103.3 355.2
07/05 19:50 11.4 84 8.62 8.8 13 17 1013.1 0 19.7 26.6 41.1 107.9 101.8 350.0
07/05 19:40 11.4 82 8.42 8.4 11 13 1013.1 0 19.3 26.3 40.3 105.7 99.0 340.4

Last Refresh: 08-May-2026 12:10:13

Bureau of Meteorology